Flight Track Log - Related Links

Times and Time Zones

All times are in EDT time to prevent confusion due to time zone crossing. See the ACA677 flight status page for this flight to view local times or setup timezone preferences in your user account.

Time Position Orientation Groundspeed Altitude Reporting Facility
EDT Latitude Longitude Course Direction KTS MPH feet Rate Location/Type
Sun 08:26:46 PM 44.9000 -63.4833 290° West 160 184 2,900  Level Moncton Center
Sun 08:27:46 PM 44.9333 -63.4833 360° North 180 207 5,800 2,650 Climbing Moncton Center
Sun 08:28:46 PM 44.9667 -63.5667 300° West 250 288 8,200 2,700 Climbing Moncton Center
Sun 08:29:00 PM 45.0118 -64.0140 290° West  Level FlightAware Approximate
Sun 08:29:46 PM 44.9833 -63.6333 289° West 260 299 11,200  Level Moncton Center
Sun 08:30:00 PM 45.0501 -64.1417 294° West  Level FlightAware Approximate
Sun 08:30:46 PM 45.0333 -63.7500 301° West 310 357 13,900  Level Moncton Center
Sun 08:31:00 PM 45.0841 -64.2707 286° West  Level FlightAware Approximate
Sun 08:31:46 PM 45.0667 -63.8833 290° West 310 357 16,600  Level Moncton Center
Sun 08:32:00 PM 45.1204 -64.3982 290° West  Level FlightAware Approximate
Sun 08:32:46 PM 45.0833 -64.0000 281° West 320 368 18,600  Level Moncton Center
Sun 08:33:46 PM 45.1000 -64.1333 280° West 320 368 21,300 2,400 Climbing Moncton Center
Sun 08:34:46 PM 45.1167 -64.2500 281° West 330 380 23,400 2,150 Climbing Moncton Center
Sun 08:35:46 PM 45.1333 -64.4000 279° West 340 391 25,600 1,850 Climbing Moncton Center
Sun 08:36:46 PM 45.1500 -64.5167 281° West 340 391 27,100 1,550 Climbing Moncton Center
Sun 08:37:46 PM 45.1667 -64.6500 280° West 340 391 28,700 1,550 Climbing Moncton Center
Sun 08:38:46 PM 45.1833 -64.7833 280° West 340 391 30,200 1,350 Climbing Moncton Center
Sun 08:39:46 PM 45.2000 -64.9167 280° West 340 391 31,400 1,700 Climbing Moncton Center
Sun 08:40:46 PM 45.2167 -65.0333 282° West 330 380 33,600 1,600 Climbing Moncton Center
Sun 08:41:46 PM 45.2167 -65.1500 270° West 320 368 34,600 650 Climbing Moncton Center
Sun 08:42:46 PM 45.2333 -65.3000 279° West 330 380 34,900 500 Climbing Moncton Center
Sun 08:43:46 PM 45.2500 -65.4167 282° West 340 391 35,600 700 Climbing Moncton Center
Sun 08:44:46 PM 45.2667 -65.5667 279° West 350 403 36,300 700 Climbing Moncton Center
Sun 08:45:46 PM 45.2833 -65.7000 280° West 350 403 37,000 600 Climbing Moncton Center
Sun 08:46:46 PM 45.3000 -65.8500 279° West 350 403 37,500 500 Climbing Moncton Center
Sun 08:47:46 PM 45.3167 -65.9667 282° West 350 403 38,000 250 Climbing Moncton Center
Sun 08:48:46 PM 45.3333 -66.1167 279° West 360 414 38,000  Level Moncton Center
Sun 08:49:46 PM 45.3667 -66.2500 290° West 360 414 38,000  Level Moncton Center
Sun 08:50:46 PM 45.3667 -66.4000 270° West 360 414 38,000  Level Moncton Center
Sun 08:51:46 PM 45.3833 -66.5333 280° West 370 426 38,000  Level Moncton Center
Sun 08:52:46 PM 45.4000 -66.6833 279° West 370 426 38,000  Level Moncton Center
Sun 08:53:46 PM 45.4167 -66.8500 278° West 380 437 38,000  Level Moncton Center
Sun 08:54:46 PM 45.4333 -67.0000 279° West 380 437 38,000  Level Moncton Center
Sun 08:55:46 PM 45.4333 -67.1333 270° West 380 437 38,000  Level Moncton Center
Sun 08:56:45 PM 45.4500 -67.2833 279° West 380 437 38,000  Level Moncton Center
Sun 08:57:46 PM 45.4667 -67.4500 278° West 370 426 38,000  Level Moncton Center
Sun 08:58:46 PM 45.4833 -67.6000 279° West 380 437 38,000  Level Moncton Center
Sun 08:59:15 PM 45.5081 -67.6447 308° West 385 443 38,000  Level Boston Center
Sun 09:00:15 PM 45.5222 -67.7917 278° West 385 443 38,000  Level Boston Center
Sun 09:00:45 PM 45.5167 -67.8833 265° West 370 426 38,000  Level Moncton Center
Sun 09:01:45 PM 45.5333 -68.0333 279° West 380 437 38,000  Level Moncton Center
Sun 09:02:45 PM 45.5500 -68.1667 280° West 380 437 38,000  Level Moncton Center
Sun 09:03:15 PM 45.5625 -68.2422 283° West 391 450 38,000  Level Boston Center
Sun 09:04:15 PM 45.5739 -68.3928 276° West 386 444 38,000  Level Boston Center
Sun 09:05:15 PM 45.5894 -68.5428 278° West 386 444 38,000  Level Boston Center
Sun 09:06:15 PM 45.6133 -68.6925 283° West 386 444 38,000  Level Boston Center
Sun 09:07:15 PM 45.6367 -68.8425 283° West 391 450 38,000  Level Boston Center
Sun 09:08:15 PM 45.6578 -68.9897 282° West 386 444 38,000  Level Boston Center
Sun 09:09:15 PM 45.6808 -69.1400 282° West 386 444 38,000  Level Boston Center
Sun 09:10:15 PM 45.7017 -69.2903 281° West 391 450 38,000  Level Boston Center
Sun 09:10:45 PM 45.7000 -69.3833 269° West 390 449 38,000  Level Moncton Center
Sun 09:11:45 PM 45.7167 -69.5333 279° West 390 449 38,000  Level Moncton Center
Sun 09:12:45 PM 45.7500 -69.6667 290° West 380 437 38,000  Level Moncton Center
Sun 09:13:15 PM 45.7692 -69.7389 291° West 391 450 38,000  Level Boston Center
Sun 09:14:15 PM 45.7914 -69.8894 282° West 391 450 38,000  Level Boston Center
Sun 09:15:15 PM 45.8114 -70.0436 281° West 391 450 38,000  Level Boston Center
Sun 09:16:15 PM 45.8353 -70.1975 283° West 391 450 38,000  Level Boston Center
Sun 09:17:15 PM 45.8547 -70.3486 281° West 391 450 38,000  Level Boston Center
Sun 09:17:45 PM 45.8500 -70.4333 265° West 390 449 38,000  Level Moncton Center
Sun 09:18:45 PM 45.8667 -70.6000 278° West 390 449 38,000 -200 Level Moncton Center
Sun 09:19:45 PM 45.9000 -70.7500 288° West 390 449 37,600 -650 Descending Moncton Center
Sun 09:20:45 PM 45.9000 -70.9000 270° West 390 449 36,700 -1,000 Descending Moncton Center
Sun 09:21:45 PM 45.9000 -71.0667 270° West 370 426 35,600 -1,000 Descending Moncton Center
Sun 09:22:45 PM 45.8833 -71.1833 258° West 360 414 34,700 -1,000 Descending Moncton Center
Sun 09:23:45 PM 45.8667 -71.3500 262° West 350 403 33,600 -1,350 Descending Moncton Center
Sun 09:24:45 PM 45.8500 -71.4667 258° West 350 403 32,000 -1,650 Descending Moncton Center
Sun 09:25:45 PM 45.8500 -71.6167 270° West 340 391 30,300 -1,750 Descending Moncton Center
Sun 09:26:45 PM 45.8333 -71.7333 258° West 330 380 28,500 -1,700 Descending Moncton Center
Sun 09:27:45 PM 45.8333 -71.8500 270° West 320 368 26,900 -1,650 Descending Moncton Center
Sun 09:28:45 PM 45.8000 -71.9833 250° West 310 357 25,200 -1,650 Descending Moncton Center
Sun 09:29:45 PM 45.8000 -72.1000 270° West 310 357 23,600 -1,600 Descending Moncton Center
Sun 09:30:45 PM 45.7833 -72.2333 260° West 310 357 22,000 -1,600 Descending Moncton Center
Sun 09:31:45 PM 45.7833 -72.3500 270° West 300 345 20,400 -1,587 Descending Moncton Center
Sun 09:32:46 PM 45.7667 -72.4333 254° West 290 334 18,800 -1,438 Descending Montreal Center
Sun 09:33:46 PM 45.7500 -72.5500 258° West 290 334 17,500 -1,550 Descending Montreal Center
Sun 09:34:46 PM 45.7500 -72.6500 270° West 290 334 15,700 -1,650 Descending Montreal Center
Sun 09:35:46 PM 45.7333 -72.7667 258° West 280 322 14,200 -1,450 Descending Montreal Center
Sun 09:36:46 PM 45.7167 -72.8667 257° West 280 322 12,800 -1,400 Descending Montreal Center
Sun 09:37:46 PM 45.7167 -72.9833 270° West 280 322 11,400 -1,600 Descending Montreal Center
Sun 09:38:46 PM 45.7000 -73.0833 257° West 270 311 9,600 -1,800 Descending Montreal Center
Sun 09:39:46 PM 45.6833 -73.2167 260° West 270 311 7,800 -1,800 Descending Montreal Center
Sun 09:40:46 PM 45.6667 -73.3000 254° West 270 311 6,000 -1,300 Descending Montreal Center
Sun 09:41:46 PM 45.6500 -73.4000 257° West 250 288 5,200 -1,000 Descending Montreal Center
Sun 09:42:46 PM 45.6333 -73.5000 257° West 230 265 4,000 -800 Descending Montreal Center
Sun 09:43:46 PM 45.6000 -73.5667 234° Southwest 210 242 3,600 -750 Descending Montreal Center
Sun 09:44:46 PM 45.5667 -73.6000 215° Southwest 180 207 2,500 -1,100 Descending Montreal Center

Login

Don't have an account? Register now (free) for customized features, flight alerts, and more!